sensor_id;sensor_type;location;lat;lon;timestamp;P1;durP1;ratioP1;P2;durP2;ratioP2
56114;SDS011;41988;53.020;6.576;2023-04-06T00:00:03;10.77;;;4.83;;
56114;SDS011;41988;53.020;6.576;2023-04-06T00:02:51;12.50;;;4.50;;
56114;SDS011;41988;53.020;6.576;2023-04-06T00:05:36;8.07;;;4.70;;
56114;SDS011;41988;53.020;6.576;2023-04-06T00:08:20;7.33;;;4.90;;
56114;SDS011;41988;53.020;6.576;2023-04-06T00:11:07;7.37;;;5.07;;
56114;SDS011;41988;53.020;6.576;2023-04-06T00:13:51;8.67;;;5.67;;
56114;SDS011;41988;53.020;6.576;2023-04-06T00:16:36;10.40;;;5.67;;
56114;SDS011;41988;53.020;6.576;2023-04-06T00:19:20;8.13;;;4.60;;
56114;SDS011;41988;53.020;6.576;2023-04-06T00:22:07;8.57;;;4.17;;
56114;SDS011;41988;53.020;6.576;2023-04-06T00:24:52;8.47;;;5.30;;
56114;SDS011;41988;53.020;6.576;2023-04-06T00:27:37;9.80;;;4.87;;
56114;SDS011;41988;53.020;6.576;2023-04-06T00:30:22;6.93;;;4.60;;
56114;SDS011;41988;53.020;6.576;2023-04-06T00:33:06;9.00;;;5.00;;
56114;SDS011;41988;53.020;6.576;2023-04-06T00:35:51;9.60;;;4.87;;
56114;SDS011;41988;53.020;6.576;2023-04-06T00:38:39;9.00;;;5.40;;
56114;SDS011;41988;53.020;6.576;2023-04-06T00:41:23;5.83;;;4.33;;
56114;SDS011;41988;53.020;6.576;2023-04-06T00:44:08;8.37;;;5.33;;
56114;SDS011;41988;53.020;6.576;2023-04-06T00:46:52;9.83;;;4.60;;
56114;SDS011;41988;53.020;6.576;2023-04-06T00:49:37;8.60;;;5.23;;
56114;SDS011;41988;53.020;6.576;2023-04-06T00:52:21;12.47;;;4.70;;
56114;SDS011;41988;53.020;6.576;2023-04-06T00:55:06;8.40;;;5.50;;
56114;SDS011;41988;53.020;6.576;2023-04-06T00:57:51;9.03;;;5.57;;
56114;SDS011;41988;53.020;6.576;2023-04-06T01:00:36;8.27;;;5.40;;
56114;SDS011;41988;53.020;6.576;2023-04-06T01:03:20;8.53;;;4.87;;
56114;SDS011;41988;53.020;6.576;2023-04-06T01:06:05;6.93;;;4.33;;
56114;SDS011;41988;53.020;6.576;2023-04-06T01:08:50;6.60;;;4.30;;
56114;SDS011;41988;53.020;6.576;2023-04-06T01:11:35;6.13;;;4.70;;
56114;SDS011;41988;53.020;6.576;2023-04-06T01:14:20;7.67;;;5.00;;
56114;SDS011;41988;53.020;6.576;2023-04-06T01:17:04;8.80;;;5.00;;
56114;SDS011;41988;53.020;6.576;2023-04-06T01:19:49;8.00;;;4.70;;
56114;SDS011;41988;53.020;6.576;2023-04-06T01:22:37;8.13;;;5.07;;
56114;SDS011;41988;53.020;6.576;2023-04-06T01:25:22;11.03;;;4.73;;
56114;SDS011;41988;53.020;6.576;2023-04-06T01:28:07;9.00;;;4.70;;
56114;SDS011;41988;53.020;6.576;2023-04-06T01:30:52;8.90;;;5.40;;
56114;SDS011;41988;53.020;6.576;2023-04-06T01:33:37;6.33;;;4.23;;
56114;SDS011;41988;53.020;6.576;2023-04-06T01:36:22;8.40;;;4.67;;
56114;SDS011;41988;53.020;6.576;2023-04-06T01:39:06;8.53;;;4.37;;
56114;SDS011;41988;53.020;6.576;2023-04-06T01:41:51;8.53;;;5.00;;
56114;SDS011;41988;53.020;6.576;2023-04-06T01:44:35;7.83;;;4.90;;
56114;SDS011;41988;53.020;6.576;2023-04-06T01:47:20;9.87;;;4.73;;
56114;SDS011;41988;53.020;6.576;2023-04-06T01:50:05;8.90;;;5.97;;
56114;SDS011;41988;53.020;6.576;2023-04-06T01:52:50;7.03;;;4.90;;
56114;SDS011;41988;53.020;6.576;2023-04-06T01:55:35;9.83;;;4.87;;
56114;SDS011;41988;53.020;6.576;2023-04-06T01:58:20;6.77;;;4.80;;
56114;SDS011;41988;53.020;6.576;2023-04-06T02:01:04;12.40;;;4.23;;
56114;SDS011;41988;53.020;6.576;2023-04-06T02:03:49;7.60;;;4.87;;
56114;SDS011;41988;53.020;6.576;2023-04-06T02:06:34;5.90;;;4.00;;
56114;SDS011;41988;53.020;6.576;2023-04-06T02:09:19;6.97;;;4.27;;
56114;SDS011;41988;53.020;6.576;2023-04-06T02:12:04;9.33;;;4.93;;
56114;SDS011;41988;53.020;6.576;2023-04-06T02:14:49;8.77;;;5.43;;
56114;SDS011;41988;53.020;6.576;2023-04-06T02:17:33;6.70;;;4.67;;
56114;SDS011;41988;53.020;6.576;2023-04-06T02:20:18;9.37;;;5.37;;
56114;SDS011;41988;53.020;6.576;2023-04-06T02:23:03;8.73;;;5.00;;
56114;SDS011;41988;53.020;6.576;2023-04-06T02:25:47;6.77;;;4.37;;
56114;SDS011;41988;53.020;6.576;2023-04-06T02:28:32;7.37;;;4.77;;
56114;SDS011;41988;53.020;6.576;2023-04-06T02:31:17;8.40;;;5.00;;
56114;SDS011;41988;53.020;6.576;2023-04-06T02:34:01;7.03;;;4.80;;
56114;SDS011;41988;53.020;6.576;2023-04-06T02:36:46;7.37;;;4.87;;
56114;SDS011;41988;53.020;6.576;2023-04-06T02:39:31;8.73;;;5.00;;
56114;SDS011;41988;53.020;6.576;2023-04-06T02:42:15;6.77;;;4.77;;
56114;SDS011;41988;53.020;6.576;2023-04-06T02:45:00;8.03;;;4.83;;
56114;SDS011;41988;53.020;6.576;2023-04-06T02:47:45;8.27;;;4.87;;
56114;SDS011;41988;53.020;6.576;2023-04-06T02:50:30;7.13;;;5.07;;
56114;SDS011;41988;53.020;6.576;2023-04-06T02:53:15;8.90;;;5.27;;
56114;SDS011;41988;53.020;6.576;2023-04-06T02:55:59;7.90;;;5.37;;
56114;SDS011;41988;53.020;6.576;2023-04-06T02:58:43;9.73;;;4.80;;
56114;SDS011;41988;53.020;6.576;2023-04-06T03:01:28;9.77;;;5.40;;
56114;SDS011;41988;53.020;6.576;2023-04-06T03:04:13;6.73;;;4.90;;
56114;SDS011;41988;53.020;6.576;2023-04-06T03:06:58;10.77;;;4.90;;
56114;SDS011;41988;53.020;6.576;2023-04-06T03:09:43;9.43;;;4.80;;
56114;SDS011;41988;53.020;6.576;2023-04-06T03:12:27;6.97;;;4.70;;
56114;SDS011;41988;53.020;6.576;2023-04-06T03:15:11;8.80;;;5.77;;
56114;SDS011;41988;53.020;6.576;2023-04-06T03:17:56;8.37;;;5.07;;
56114;SDS011;41988;53.020;6.576;2023-04-06T03:20:41;12.70;;;5.40;;
56114;SDS011;41988;53.020;6.576;2023-04-06T03:23:25;9.90;;;5.63;;
56114;SDS011;41988;53.020;6.576;2023-04-06T03:26:10;6.83;;;4.93;;
56114;SDS011;41988;53.020;6.576;2023-04-06T03:28:54;8.73;;;5.40;;
56114;SDS011;41988;53.020;6.576;2023-04-06T03:31:39;8.33;;;5.83;;
56114;SDS011;41988;53.020;6.576;2023-04-06T03:34:24;9.67;;;5.70;;
56114;SDS011;41988;53.020;6.576;2023-04-06T03:37:08;7.67;;;5.30;;
56114;SDS011;41988;53.020;6.576;2023-04-06T03:39:53;9.70;;;5.70;;
56114;SDS011;41988;53.020;6.576;2023-04-06T03:42:38;8.27;;;5.20;;
56114;SDS011;41988;53.020;6.576;2023-04-06T03:45:25;8.17;;;5.63;;
56114;SDS011;41988;53.020;6.576;2023-04-06T03:48:10;9.77;;;5.60;;
56114;SDS011;41988;53.020;6.576;2023-04-06T03:50:54;8.73;;;5.83;;
56114;SDS011;41988;53.020;6.576;2023-04-06T03:53:39;8.97;;;5.13;;
56114;SDS011;41988;53.020;6.576;2023-04-06T03:56:24;8.63;;;6.00;;
56114;SDS011;41988;53.020;6.576;2023-04-06T03:59:11;10.27;;;5.70;;
56114;SDS011;41988;53.020;6.576;2023-04-06T04:01:55;13.63;;;6.27;;
56114;SDS011;41988;53.020;6.576;2023-04-06T04:04:40;9.03;;;5.80;;
56114;SDS011;41988;53.020;6.576;2023-04-06T04:07:25;11.23;;;6.00;;
56114;SDS011;41988;53.020;6.576;2023-04-06T04:10:09;9.80;;;6.20;;
56114;SDS011;41988;53.020;6.576;2023-04-06T04:12:54;8.93;;;5.63;;
56114;SDS011;41988;53.020;6.576;2023-04-06T04:15:39;8.27;;;5.40;;
56114;SDS011;41988;53.020;6.576;2023-04-06T04:18:23;9.00;;;5.50;;
56114;SDS011;41988;53.020;6.576;2023-04-06T04:21:08;8.83;;;5.80;;
56114;SDS011;41988;53.020;6.576;2023-04-06T04:23:53;9.57;;;6.27;;
56114;SDS011;41988;53.020;6.576;2023-04-06T04:26:38;7.70;;;5.13;;
56114;SDS011;41988;53.020;6.576;2023-04-06T04:29:23;9.33;;;5.37;;
56114;SDS011;41988;53.020;6.576;2023-04-06T04:32:07;10.10;;;6.37;;
56114;SDS011;41988;53.020;6.576;2023-04-06T04:34:52;10.87;;;6.33;;
56114;SDS011;41988;53.020;6.576;2023-04-06T04:37:37;9.63;;;6.03;;
56114;SDS011;41988;53.020;6.576;2023-04-06T04:40:21;11.53;;;5.93;;
56114;SDS011;41988;53.020;6.576;2023-04-06T04:43:06;8.33;;;5.63;;
56114;SDS011;41988;53.020;6.576;2023-04-06T04:45:51;11.33;;;6.20;;
56114;SDS011;41988;53.020;6.576;2023-04-06T04:48:36;8.53;;;5.50;;
56114;SDS011;41988;53.020;6.576;2023-04-06T04:51:20;8.93;;;6.40;;
56114;SDS011;41988;53.020;6.576;2023-04-06T04:54:05;14.77;;;6.57;;
56114;SDS011;41988;53.020;6.576;2023-04-06T04:56:49;9.57;;;6.30;;
56114;SDS011;41988;53.020;6.576;2023-04-06T04:59:35;8.20;;;5.93;;
56114;SDS011;41988;53.020;6.576;2023-04-06T05:02:19;13.33;;;7.03;;
56114;SDS011;41988;53.020;6.576;2023-04-06T05:05:04;12.63;;;7.33;;
56114;SDS011;41988;53.020;6.576;2023-04-06T05:07:49;8.40;;;5.80;;
56114;SDS011;41988;53.020;6.576;2023-04-06T05:10:36;10.53;;;6.47;;
56114;SDS011;41988;53.020;6.576;2023-04-06T05:13:21;11.60;;;7.10;;
56114;SDS011;41988;53.020;6.576;2023-04-06T05:16:06;10.20;;;6.67;;
56114;SDS011;41988;53.020;6.576;2023-04-06T05:18:50;11.37;;;6.70;;
56114;SDS011;41988;53.020;6.576;2023-04-06T05:21:36;10.10;;;6.80;;
56114;SDS011;41988;53.020;6.576;2023-04-06T05:24:23;13.27;;;7.40;;
56114;SDS011;41988;53.020;6.576;2023-04-06T05:27:08;11.83;;;6.63;;
56114;SDS011;41988;53.020;6.576;2023-04-06T05:29:54;10.93;;;7.37;;
56114;SDS011;41988;53.020;6.576;2023-04-06T05:32:38;9.37;;;6.37;;
56114;SDS011;41988;53.020;6.576;2023-04-06T05:35:23;9.70;;;6.83;;
56114;SDS011;41988;53.020;6.576;2023-04-06T05:38:08;10.47;;;6.63;;
56114;SDS011;41988;53.020;6.576;2023-04-06T05:40:56;13.20;;;7.20;;
56114;SDS011;41988;53.020;6.576;2023-04-06T05:43:41;10.17;;;6.63;;
56114;SDS011;41988;53.020;6.576;2023-04-06T05:46:25;16.67;;;7.13;;
56114;SDS011;41988;53.020;6.576;2023-04-06T05:49:10;12.37;;;6.93;;
56114;SDS011;41988;53.020;6.576;2023-04-06T05:51:54;12.60;;;6.80;;
56114;SDS011;41988;53.020;6.576;2023-04-06T05:54:39;10.97;;;6.27;;
56114;SDS011;41988;53.020;6.576;2023-04-06T05:57:24;9.87;;;6.90;;
56114;SDS011;41988;53.020;6.576;2023-04-06T06:00:11;12.17;;;7.27;;
56114;SDS011;41988;53.020;6.576;2023-04-06T06:02:56;12.77;;;7.80;;
56114;SDS011;41988;53.020;6.576;2023-04-06T06:05:41;9.93;;;6.53;;
56114;SDS011;41988;53.020;6.576;2023-04-06T06:08:25;12.40;;;6.87;;
56114;SDS011;41988;53.020;6.576;2023-04-06T06:11:10;11.43;;;7.80;;
56114;SDS011;41988;53.020;6.576;2023-04-06T06:13:55;12.43;;;7.23;;
56114;SDS011;41988;53.020;6.576;2023-04-06T06:16:39;14.53;;;7.03;;
56114;SDS011;41988;53.020;6.576;2023-04-06T06:19:24;12.87;;;7.90;;
56114;SDS011;41988;53.020;6.576;2023-04-06T06:22:09;13.77;;;7.57;;
56114;SDS011;41988;53.020;6.576;2023-04-06T06:24:54;12.80;;;7.17;;
56114;SDS011;41988;53.020;6.576;2023-04-06T06:27:38;10.23;;;6.70;;
56114;SDS011;41988;53.020;6.576;2023-04-06T06:30:23;13.07;;;7.43;;
56114;SDS011;41988;53.020;6.576;2023-04-06T06:33:07;12.40;;;7.30;;
56114;SDS011;41988;53.020;6.576;2023-04-06T06:35:52;12.93;;;8.13;;
56114;SDS011;41988;53.020;6.576;2023-04-06T06:38:37;13.37;;;7.57;;
56114;SDS011;41988;53.020;6.576;2023-04-06T06:41:22;15.10;;;7.87;;
56114;SDS011;41988;53.020;6.576;2023-04-06T06:44:07;12.27;;;7.30;;
56114;SDS011;41988;53.020;6.576;2023-04-06T06:46:52;15.40;;;7.17;;
56114;SDS011;41988;53.020;6.576;2023-04-06T06:49:36;12.03;;;7.50;;
56114;SDS011;41988;53.020;6.576;2023-04-06T06:52:21;10.77;;;7.23;;
56114;SDS011;41988;53.020;6.576;2023-04-06T06:55:08;12.47;;;7.57;;
56114;SDS011;41988;53.020;6.576;2023-04-06T06:57:53;12.57;;;7.20;;
56114;SDS011;41988;53.020;6.576;2023-04-06T07:00:38;10.83;;;6.77;;
56114;SDS011;41988;53.020;6.576;2023-04-06T07:03:22;13.00;;;6.75;;
56114;SDS011;41988;53.020;6.576;2023-04-06T07:06:07;11.75;;;8.43;;
56114;SDS011;41988;53.020;6.576;2023-04-06T07:08:52;11.60;;;7.18;;
56114;SDS011;41988;53.020;6.576;2023-04-06T07:11:36;13.02;;;7.95;;
56114;SDS011;41988;53.020;6.576;2023-04-06T07:14:21;11.75;;;6.72;;
56114;SDS011;41988;53.020;6.576;2023-04-06T07:17:05;12.60;;;7.68;;
56114;SDS011;41988;53.020;6.576;2023-04-06T07:19:50;13.90;;;6.45;;
56114;SDS011;41988;53.020;6.576;2023-04-06T07:22:34;12.70;;;6.88;;
56114;SDS011;41988;53.020;6.576;2023-04-06T07:25:19;13.88;;;6.97;;
56114;SDS011;41988;53.020;6.576;2023-04-06T07:28:03;14.43;;;8.18;;
56114;SDS011;41988;53.020;6.576;2023-04-06T07:30:48;14.90;;;7.00;;
56114;SDS011;41988;53.020;6.576;2023-04-06T07:33:33;10.60;;;7.35;;
56114;SDS011;41988;53.020;6.576;2023-04-06T07:36:18;13.85;;;7.45;;
56114;SDS011;41988;53.020;6.576;2023-04-06T07:39:03;12.50;;;7.63;;
56114;SDS011;41988;53.020;6.576;2023-04-06T07:41:47;12.20;;;7.57;;
56114;SDS011;41988;53.020;6.576;2023-04-06T07:44:31;12.35;;;7.30;;
56114;SDS011;41988;53.020;6.576;2023-04-06T07:47:16;13.75;;;7.32;;
56114;SDS011;41988;53.020;6.576;2023-04-06T07:50:01;12.35;;;7.55;;
56114;SDS011;41988;53.020;6.576;2023-04-06T07:52:45;16.20;;;8.23;;
56114;SDS011;41988;53.020;6.576;2023-04-06T07:55:33;13.48;;;7.00;;
56114;SDS011;41988;53.020;6.576;2023-04-06T07:58:17;11.85;;;7.45;;
56114;SDS011;41988;53.020;6.576;2023-04-06T08:01:04;16.80;;;7.45;;
56114;SDS011;41988;53.020;6.576;2023-04-06T08:03:49;13.10;;;7.75;;
56114;SDS011;41988;53.020;6.576;2023-04-06T08:06:34;11.27;;;7.57;;
56114;SDS011;41988;53.020;6.576;2023-04-06T08:09:20;11.43;;;7.00;;
56114;SDS011;41988;53.020;6.576;2023-04-06T08:12:04;13.20;;;7.60;;
56114;SDS011;41988;53.020;6.576;2023-04-06T08:14:49;13.80;;;7.97;;
56114;SDS011;41988;53.020;6.576;2023-04-06T08:17:34;12.25;;;7.68;;
56114;SDS011;41988;53.020;6.576;2023-04-06T08:20:18;10.73;;;7.13;;
56114;SDS011;41988;53.020;6.576;2023-04-06T08:23:03;9.68;;;7.18;;
56114;SDS011;41988;53.020;6.576;2023-04-06T08:25:52;17.35;;;8.30;;
56114;SDS011;41988;53.020;6.576;2023-04-06T08:28:40;12.95;;;7.53;;
56114;SDS011;41988;53.020;6.576;2023-04-06T08:31:25;11.88;;;7.63;;
56114;SDS011;41988;53.020;6.576;2023-04-06T08:34:09;10.50;;;7.50;;
56114;SDS011;41988;53.020;6.576;2023-04-06T08:36:54;11.57;;;7.65;;
56114;SDS011;41988;53.020;6.576;2023-04-06T08:39:38;17.83;;;8.23;;
56114;SDS011;41988;53.020;6.576;2023-04-06T08:42:25;12.15;;;6.90;;
56114;SDS011;41988;53.020;6.576;2023-04-06T08:45:10;12.57;;;7.65;;
56114;SDS011;41988;53.020;6.576;2023-04-06T08:47:54;11.35;;;7.63;;
56114;SDS011;41988;53.020;6.576;2023-04-06T08:50:42;11.60;;;7.75;;
56114;SDS011;41988;53.020;6.576;2023-04-06T08:53:27;11.82;;;7.35;;
56114;SDS011;41988;53.020;6.576;2023-04-06T08:56:12;11.15;;;7.28;;
56114;SDS011;41988;53.020;6.576;2023-04-06T08:58:57;13.32;;;7.35;;
56114;SDS011;41988;53.020;6.576;2023-04-06T09:01:42;10.57;;;6.90;;
56114;SDS011;41988;53.020;6.576;2023-04-06T09:04:29;13.73;;;8.05;;
56114;SDS011;41988;53.020;6.576;2023-04-06T09:07:22;13.23;;;8.63;;
56114;SDS011;41988;53.020;6.576;2023-04-06T09:10:07;13.43;;;7.90;;
56114;SDS011;41988;53.020;6.576;2023-04-06T09:13:02;12.60;;;8.07;;
56114;SDS011;41988;53.020;6.576;2023-04-06T09:15:46;11.10;;;7.30;;
56114;SDS011;41988;53.020;6.576;2023-04-06T09:18:45;16.25;;;8.98;;
56114;SDS011;41988;53.020;6.576;2023-04-06T09:21:30;10.38;;;7.55;;
56114;SDS011;41988;53.020;6.576;2023-04-06T09:24:15;11.65;;;7.47;;
56114;SDS011;41988;53.020;6.576;2023-04-06T09:27:04;12.05;;;8.90;;
56114;SDS011;41988;53.020;6.576;2023-04-06T09:30:01;16.80;;;9.38;;
56114;SDS011;41988;53.020;6.576;2023-04-06T09:32:50;16.48;;;8.63;;
56114;SDS011;41988;53.020;6.576;2023-04-06T09:35:35;18.05;;;10.30;;
56114;SDS011;41988;53.020;6.576;2023-04-06T09:38:20;20.83;;;11.40;;
56114;SDS011;41988;53.020;6.576;2023-04-06T09:41:04;19.98;;;10.30;;
56114;SDS011;41988;53.020;6.576;2023-04-06T09:43:50;16.90;;;10.73;;
56114;SDS011;41988;53.020;6.576;2023-04-06T09:46:41;17.63;;;10.23;;
56114;SDS011;41988;53.020;6.576;2023-04-06T09:49:27;22.48;;;11.43;;
56114;SDS011;41988;53.020;6.576;2023-04-06T09:52:12;17.17;;;11.13;;
56114;SDS011;41988;53.020;6.576;2023-04-06T09:54:58;16.92;;;11.10;;
56114;SDS011;41988;53.020;6.576;2023-04-06T10:00:28;16.65;;;10.68;;
56114;SDS011;41988;53.020;6.576;2023-04-06T10:03:16;17.88;;;10.63;;
56114;SDS011;41988;53.020;6.576;2023-04-06T10:06:03;22.15;;;12.30;;
56114;SDS011;41988;53.020;6.576;2023-04-06T10:08:49;21.05;;;11.93;;
56114;SDS011;41988;53.020;6.576;2023-04-06T10:11:34;22.63;;;12.73;;
56114;SDS011;41988;53.020;6.576;2023-04-06T10:14:19;25.92;;;13.50;;
56114;SDS011;41988;53.020;6.576;2023-04-06T10:17:04;21.92;;;13.68;;
56114;SDS011;41988;53.020;6.576;2023-04-06T10:22:40;20.85;;;13.00;;
56114;SDS011;41988;53.020;6.576;2023-04-06T10:28:12;22.52;;;13.32;;
56114;SDS011;41988;53.020;6.576;2023-04-06T10:31:01;25.30;;;14.02;;
56114;SDS011;41988;53.020;6.576;2023-04-06T10:33:56;22.63;;;14.70;;
56114;SDS011;41988;53.020;6.576;2023-04-06T10:36:41;23.95;;;13.82;;
56114;SDS011;41988;53.020;6.576;2023-04-06T10:39:25;23.02;;;12.77;;
56114;SDS011;41988;53.020;6.576;2023-04-06T10:42:10;20.92;;;12.85;;
56114;SDS011;41988;53.020;6.576;2023-04-06T10:44:55;23.23;;;13.15;;
56114;SDS011;41988;53.020;6.576;2023-04-06T10:47:40;25.52;;;12.57;;
56114;SDS011;41988;53.020;6.576;2023-04-06T10:50:27;25.48;;;14.02;;
56114;SDS011;41988;53.020;6.576;2023-04-06T10:53:20;22.70;;;13.95;;
56114;SDS011;41988;53.020;6.576;2023-04-06T10:56:09;23.25;;;14.68;;
56114;SDS011;41988;53.020;6.576;2023-04-06T10:58:55;26.38;;;15.02;;
56114;SDS011;41988;53.020;6.576;2023-04-06T11:01:39;25.30;;;14.70;;
56114;SDS011;41988;53.020;6.576;2023-04-06T11:04:29;26.00;;;15.02;;
56114;SDS011;41988;53.020;6.576;2023-04-06T11:07:22;26.98;;;15.40;;
56114;SDS011;41988;53.020;6.576;2023-04-06T11:10:07;27.55;;;15.13;;
56114;SDS011;41988;53.020;6.576;2023-04-06T11:12:53;25.50;;;15.07;;
56114;SDS011;41988;53.020;6.576;2023-04-06T11:15:38;24.75;;;14.85;;
56114;SDS011;41988;53.020;6.576;2023-04-06T11:18:22;24.25;;;15.82;;
56114;SDS011;41988;53.020;6.576;2023-04-06T11:21:09;23.85;;;15.07;;
56114;SDS011;41988;53.020;6.576;2023-04-06T11:24:03;24.70;;;15.10;;
56114;SDS011;41988;53.020;6.576;2023-04-06T11:26:48;23.38;;;15.90;;
56114;SDS011;41988;53.020;6.576;2023-04-06T11:29:34;23.05;;;15.45;;
56114;SDS011;41988;53.020;6.576;2023-04-06T11:32:21;26.27;;;16.40;;
56114;SDS011;41988;53.020;6.576;2023-04-06T11:35:07;28.70;;;17.08;;
56114;SDS011;41988;53.020;6.576;2023-04-06T11:37:52;28.67;;;18.55;;
56114;SDS011;41988;53.020;6.576;2023-04-06T11:40:36;29.77;;;17.35;;
56114;SDS011;41988;53.020;6.576;2023-04-06T11:43:28;27.10;;;18.73;;
56114;SDS011;41988;53.020;6.576;2023-04-06T11:46:17;29.58;;;18.40;;
56114;SDS011;41988;53.020;6.576;2023-04-06T11:49:03;30.70;;;18.55;;
56114;SDS011;41988;53.020;6.576;2023-04-06T11:51:48;28.75;;;17.88;;
56114;SDS011;41988;53.020;6.576;2023-04-06T11:54:32;28.50;;;18.45;;
56114;SDS011;41988;53.020;6.576;2023-04-06T11:57:18;27.90;;;17.60;;
56114;SDS011;41988;53.020;6.576;2023-04-06T12:00:03;31.45;;;18.70;;
56114;SDS011;41988;53.020;6.576;2023-04-06T12:02:48;29.50;;;18.73;;
56114;SDS011;41988;53.020;6.576;2023-04-06T12:05:33;27.52;;;17.42;;
56114;SDS011;41988;53.020;6.576;2023-04-06T12:08:18;26.02;;;17.48;;
56114;SDS011;41988;53.020;6.576;2023-04-06T12:11:02;29.30;;;18.08;;
56114;SDS011;41988;53.020;6.576;2023-04-06T12:13:50;27.98;;;17.23;;
56114;SDS011;41988;53.020;6.576;2023-04-06T12:16:35;25.73;;;15.93;;
56114;SDS011;41988;53.020;6.576;2023-04-06T12:19:19;24.45;;;16.08;;
56114;SDS011;41988;53.020;6.576;2023-04-06T12:22:07;22.92;;;16.35;;
56114;SDS011;41988;53.020;6.576;2023-04-06T12:24:51;25.27;;;16.80;;
56114;SDS011;41988;53.020;6.576;2023-04-06T12:27:36;25.05;;;17.88;;
56114;SDS011;41988;53.020;6.576;2023-04-06T12:30:21;26.55;;;16.38;;
56114;SDS011;41988;53.020;6.576;2023-04-06T12:33:05;25.67;;;17.35;;
56114;SDS011;41988;53.020;6.576;2023-04-06T12:35:50;31.10;;;17.20;;
56114;SDS011;41988;53.020;6.576;2023-04-06T12:38:34;26.60;;;16.67;;
56114;SDS011;41988;53.020;6.576;2023-04-06T12:41:21;26.33;;;16.83;;
56114;SDS011;41988;53.020;6.576;2023-04-06T12:44:06;29.45;;;16.50;;
56114;SDS011;41988;53.020;6.576;2023-04-06T12:46:51;28.20;;;17.70;;
56114;SDS011;41988;53.020;6.576;2023-04-06T12:49:35;27.42;;;16.60;;
56114;SDS011;41988;53.020;6.576;2023-04-06T12:52:20;27.90;;;16.33;;
56114;SDS011;41988;53.020;6.576;2023-04-06T12:55:05;28.02;;;15.80;;
56114;SDS011;41988;53.020;6.576;2023-04-06T12:57:50;25.58;;;16.42;;
56114;SDS011;41988;53.020;6.576;2023-04-06T13:00:35;27.30;;;16.55;;
56114;SDS011;41988;53.020;6.576;2023-04-06T13:03:20;25.50;;;16.33;;
56114;SDS011;41988;53.020;6.576;2023-04-06T13:06:05;25.13;;;15.65;;
56114;SDS011;41988;53.020;6.576;2023-04-06T13:08:51;27.00;;;17.60;;
56114;SDS011;41988;53.020;6.576;2023-04-06T13:11:36;24.55;;;16.55;;
56114;SDS011;41988;53.020;6.576;2023-04-06T13:14:22;27.60;;;16.98;;
56114;SDS011;41988;53.020;6.576;2023-04-06T13:17:07;26.30;;;15.68;;
56114;SDS011;41988;53.020;6.576;2023-04-06T13:19:51;23.67;;;14.90;;
56114;SDS011;41988;53.020;6.576;2023-04-06T13:22:39;22.42;;;15.20;;
56114;SDS011;41988;53.020;6.576;2023-04-06T13:25:24;25.38;;;14.35;;
56114;SDS011;41988;53.020;6.576;2023-04-06T13:28:08;23.08;;;14.48;;
56114;SDS011;41988;53.020;6.576;2023-04-06T13:30:53;22.90;;;14.27;;
56114;SDS011;41988;53.020;6.576;2023-04-06T13:33:38;21.20;;;14.93;;
56114;SDS011;41988;53.020;6.576;2023-04-06T13:36:24;21.05;;;14.50;;
56114;SDS011;41988;53.020;6.576;2023-04-06T13:39:10;22.63;;;15.07;;
56114;SDS011;41988;53.020;6.576;2023-04-06T13:41:55;24.13;;;14.98;;
56114;SDS011;41988;53.020;6.576;2023-04-06T13:44:40;24.45;;;14.52;;
56114;SDS011;41988;53.020;6.576;2023-04-06T13:47:24;22.50;;;13.63;;
56114;SDS011;41988;53.020;6.576;2023-04-06T13:50:09;19.95;;;14.02;;
56114;SDS011;41988;53.020;6.576;2023-04-06T13:52:55;21.00;;;14.10;;
56114;SDS011;41988;53.020;6.576;2023-04-06T13:55:39;19.88;;;13.15;;
56114;SDS011;41988;53.020;6.576;2023-04-06T13:58:24;20.98;;;13.43;;
56114;SDS011;41988;53.020;6.576;2023-04-06T14:01:09;18.70;;;13.82;;
56114;SDS011;41988;53.020;6.576;2023-04-06T14:03:53;19.55;;;13.18;;
56114;SDS011;41988;53.020;6.576;2023-04-06T14:06:38;20.38;;;12.80;;
56114;SDS011;41988;53.020;6.576;2023-04-06T14:09:23;22.48;;;13.48;;
56114;SDS011;41988;53.020;6.576;2023-04-06T14:12:08;20.73;;;12.57;;
56114;SDS011;41988;53.020;6.576;2023-04-06T14:14:53;21.08;;;13.32;;
56114;SDS011;41988;53.020;6.576;2023-04-06T14:17:37;18.50;;;11.57;;
56114;SDS011;41988;53.020;6.576;2023-04-06T14:20:22;16.15;;;11.30;;
56114;SDS011;41988;53.020;6.576;2023-04-06T14:23:06;18.95;;;11.95;;
56114;SDS011;41988;53.020;6.576;2023-04-06T14:25:51;17.88;;;11.07;;
56114;SDS011;41988;53.020;6.576;2023-04-06T14:28:36;16.83;;;11.07;;
56114;SDS011;41988;53.020;6.576;2023-04-06T14:31:21;17.13;;;10.80;;
56114;SDS011;41988;53.020;6.576;2023-04-06T14:34:06;15.25;;;10.40;;
56114;SDS011;41988;53.020;6.576;2023-04-06T14:36:51;19.83;;;12.38;;
56114;SDS011;41988;53.020;6.576;2023-04-06T14:39:36;22.08;;;13.10;;
56114;SDS011;41988;53.020;6.576;2023-04-06T14:42:23;18.00;;;11.63;;
56114;SDS011;41988;53.020;6.576;2023-04-06T14:45:07;18.83;;;11.18;;
56114;SDS011;41988;53.020;6.576;2023-04-06T14:47:52;16.02;;;11.35;;
56114;SDS011;41988;53.020;6.576;2023-04-06T14:50:36;17.52;;;11.00;;
56114;SDS011;41988;53.020;6.576;2023-04-06T14:53:25;18.42;;;11.32;;
56114;SDS011;41988;53.020;6.576;2023-04-06T14:56:11;19.48;;;10.32;;
56114;SDS011;41988;53.020;6.576;2023-04-06T14:58:56;14.68;;;9.98;;
56114;SDS011;41988;53.020;6.576;2023-04-06T15:01:41;16.25;;;10.63;;
56114;SDS011;41988;53.020;6.576;2023-04-06T15:04:26;17.85;;;10.77;;
56114;SDS011;41988;53.020;6.576;2023-04-06T15:07:10;16.23;;;10.00;;
56114;SDS011;41988;53.020;6.576;2023-04-06T15:09:55;15.40;;;10.95;;
56114;SDS011;41988;53.020;6.576;2023-04-06T15:12:39;17.70;;;12.45;;
56114;SDS011;41988;53.020;6.576;2023-04-06T15:15:24;19.27;;;10.85;;
56114;SDS011;41988;53.020;6.576;2023-04-06T15:18:09;14.25;;;9.50;;
56114;SDS011;41988;53.020;6.576;2023-04-06T15:20:53;20.23;;;9.63;;
56114;SDS011;41988;53.020;6.576;2023-04-06T15:23:38;15.90;;;9.77;;
56114;SDS011;41988;53.020;6.576;2023-04-06T15:26:23;16.45;;;10.30;;
56114;SDS011;41988;53.020;6.576;2023-04-06T15:29:09;16.88;;;10.57;;
56114;SDS011;41988;53.020;6.576;2023-04-06T15:31:53;17.88;;;10.55;;
56114;SDS011;41988;53.020;6.576;2023-04-06T15:34:38;17.20;;;10.02;;
56114;SDS011;41988;53.020;6.576;2023-04-06T15:37:23;15.55;;;10.27;;
56114;SDS011;41988;53.020;6.576;2023-04-06T15:40:08;14.80;;;10.20;;
56114;SDS011;41988;53.020;6.576;2023-04-06T15:42:57;17.80;;;10.52;;
56114;SDS011;41988;53.020;6.576;2023-04-06T15:45:41;16.90;;;10.57;;
56114;SDS011;41988;53.020;6.576;2023-04-06T15:48:26;16.40;;;9.65;;
56114;SDS011;41988;53.020;6.576;2023-04-06T15:51:14;15.25;;;10.50;;
56114;SDS011;41988;53.020;6.576;2023-04-06T15:53:59;15.77;;;10.18;;
56114;SDS011;41988;53.020;6.576;2023-04-06T15:56:44;17.80;;;11.20;;
56114;SDS011;41988;53.020;6.576;2023-04-06T15:59:28;17.67;;;11.40;;
56114;SDS011;41988;53.020;6.576;2023-04-06T16:02:13;18.48;;;12.10;;
56114;SDS011;41988;53.020;6.576;2023-04-06T16:04:58;19.65;;;13.30;;
56114;SDS011;41988;53.020;6.576;2023-04-06T16:07:46;21.58;;;13.45;;
56114;SDS011;41988;53.020;6.576;2023-04-06T16:10:31;21.85;;;13.77;;
56114;SDS011;41988;53.020;6.576;2023-04-06T16:13:16;24.00;;;13.45;;
56114;SDS011;41988;53.020;6.576;2023-04-06T16:16:00;21.58;;;14.25;;
56114;SDS011;41988;53.020;6.576;2023-04-06T16:18:46;20.25;;;13.63;;
56114;SDS011;41988;53.020;6.576;2023-04-06T16:21:31;20.75;;;13.18;;
56114;SDS011;41988;53.020;6.576;2023-04-06T16:24:16;25.02;;;14.75;;
56114;SDS011;41988;53.020;6.576;2023-04-06T16:27:00;21.95;;;14.55;;